x

Mid Superior 60nm North Northeast Hancock, Mi (45001) Wave Buoy

10:50pm - Mon 27th Jul 2015 All times are CDT. -5 hours from GMT.

  • Sig Wave height 0.3ft
  • Average Period 3s
  • Wind
    7mph, 9mph gusts
  • Sea Temp 39°f
  • Air Temp 45°f
  • Sea Pressure 1016.5mb
  • Mid Superior 60nm North Northeast Hancock, Mi
  • Mid Superior 60nm North Northeast Hancock, Mi

More Historic Weather Station data

Upgrade to MSW Pro to gain access to the past 30 days of data for over 8000 Wavebouys and Weather Stations around the globe.

Join Pro

Comparision Forecast

View Surf forecast
   
Mon 07/27 10:50pm 0.3ft  -  3s 7 9 mph 1016.5mb 39f 45f
9:50pm 0.3ft  -  3s 7
mph
1016.5mb 39f 45f
8:50pm 0.3ft  -  3s 7 9 mph 1016.3mb 39f 44f
7:50pm 0.3ft  -  3s 11
mph
1016.1mb 39f 43f
6:50pm 0.3ft  -  3s 7
mph
1015.7mb 39f 43f
5:50pm 0.3ft  -  3s 7 9 mph 1015.9mb 40f 42f
4:50pm 0.3ft  -  3s 4 9 mph 1016.1mb 40f 47f
3:50pm 0.3ft  -  3s 4 7 mph 1016.4mb 39f 47f
1:50pm 0.3ft  -  3s 7 9 mph 1016.7mb 39f 46f
12:50pm 0.3ft  -  3s 9
mph
1017.1mb 39f 44f
11:50am 0.3ft  -  3s 11 13 mph 1017mb 39f 45f
10:50am 0.3ft  -  3s 9
mph
1017.5mb 39f 44f
9:50am 0.3ft  -  3s 7 18 mph 1017.6mb 39f 45f
8:50am 0.3ft  -  3s 7
mph
1016.6mb 39f 48f
7:50am 0.3ft  -  3s 4 7 mph 1016.2mb 39f 48f
6:50am 0.3ft  -   -  7
mph
1015.6mb 39f 49f
5:50am 0.3ft  -  3s 4 7 mph 1015.6mb 39f 46f
4:50am 0.3ft  -  3s 2 4 mph 1015.7mb 39f 46f
3:50am 0.3ft  -  3s 2 4 mph 1015.4mb 39f 45f
2:50am 0.3ft  -  3s 7
mph
1014.9mb 39f 46f
1:50am 0.3ft  -  3s 9
mph
1014.7mb 39f 46f
12:50am 0.3ft  -  3s 4 7 mph 1014.8mb 39f 44f
Sun 07/26 11:50pm 0.3ft  -  3s 7 9 mph 1015.1mb 39f 44f
10:50pm 0.3ft  -  3s 7
mph
1014.9mb 39f 44f
9:50pm 0.3ft  -  3s 4 7 mph 1014.4mb 39f 46f
8:50pm 0.3ft  -  3s 4 7 mph 1014.4mb 39f 45f
7:50pm 0.3ft  -  3s 9
mph
1013.7mb 39f 49f
6:50pm 0.3ft  -  3s 9
mph
1013.8mb 39f 51f
5:50pm 0.3ft  -  3s 7 9 mph 1014.1mb 40f 51f
4:50pm 0.3ft  -  3s 7
mph
1014.2mb 40f 47f
3:50pm 0.3ft  -  3s 9
mph
1014.2mb 39f 49f
2:50pm 0.7ft  -  3s 7
mph
1014.4mb 39f 46f
1:50pm 0.7ft  -  3s 7
mph
1014.6mb 39f 45f
12:50pm 0.7ft  -  3s 7 9 mph 1014.6mb 39f 43f
11:50am 0.3ft  -  3s 4 7 mph 1014.5mb 39f 44f
10:50am 0.7ft  -  3s 7 9 mph 1014.1mb 39f 44f
9:50am 0.7ft  -  3s 7
mph
1013.8mb 39f 46f
8:50am 0.7ft  -  3s 7
mph
1013.9mb 39f 46f
7:50am 0.7ft  -  3s 7 9 mph 1013.3mb 39f 46f
6:50am 0.7ft  -  3s 9 11 mph 1012.9mb 38f 46f
5:50am 0.7ft  -  3s 7 9 mph 1012.4mb 39f 46f
4:50am 0.7ft  -  3s 7 9 mph 1012.2mb 39f 50f
3:50am 0.7ft  -  3s 4 7 mph 1012.4mb 38f 47f
2:50am 0.7ft  -  3s 7
mph
1012.3mb 38f 47f
1:50am 0.7ft  -  3s 9
mph
1012.2mb 39f 47f
12:50am 1ft 4s 3s 7 9 mph 1012mb 39f 47f
Sat 07/25 11:50pm 1ft 4s 3s 7 9 mph 1012.2mb 38f 47f
10:50pm 1ft 3s 3s 9 11 mph 1012.1mb 38f 45f
9:50pm 1ft 3s 3s 11 13 mph 1012.1mb 39f 47f
8:50pm 1.3ft 4s 3s 13 16 mph 1012mb 39f 47f
7:50pm 1.3ft 3s 3s 11 16 mph 1012.2mb 39f 48f
6:50pm 1.3ft 3s 3s 13 16 mph 1012.1mb 39f 51f
5:50pm 1.3ft 4s 3s 13 16 mph 1012mb 39f 47f
4:50pm 1.3ft 4s 3s 13 16 mph 1012.1mb 39f 47f
3:50pm 1.3ft 3s 3s 13 16 mph 1012.7mb 39f 48f
2:50pm 1.3ft 3s 3s 13 16 mph 1013mb 39f 46f
1:50pm 1.3ft 3s 3s 13
mph
1013.2mb 39f 46f
12:50pm 1ft 4s 3s 16 18 mph 1013.3mb 39f 45f
11:50am 0.7ft  -  3s 11 13 mph 1013.2mb 39f 44f
10:50am 0.7ft  -  3s 11
mph
1013.4mb 39f 43f
9:50am 0.7ft  -  3s 7 9 mph 1012.7mb 39f 48f
8:50am 0.7ft  -  3s 7 9 mph 1012.6mb 39f 47f
7:50am 0.7ft  -  3s 7
mph
1012.1mb 39f 46f
6:50am 0.7ft  -  3s 11
mph
1011.6mb 38f 46f
5:50am 0.7ft  -  3s 9 11 mph 1011mb 38f 47f
4:50am 0.7ft  -  3s 7 9 mph 1010.7mb 38f 44f
3:50am 0.7ft  -  3s 9 11 mph 1010.1mb 38f 48f
2:50am 0.7ft  -  3s 13
mph
1009.6mb 38f 49f
1:50am 0.7ft  -  3s 9 11 mph 1009.5mb 38f 48f
12:50am 1ft 3s 3s 11 13 mph 1009.1mb 38f 48f
Fri 07/24 11:50pm 1ft 3s 3s 7 9 mph 1009mb 38f 44f
10:50pm 1ft 3s 3s 11 13 mph 1008.7mb 39f 46f
9:50pm 0.7ft  -  3s 11 13 mph 1008.3mb 39f 47f
8:50pm 0.7ft  -  3s 16
mph
1007.7mb 38f 51f
7:50pm 0.7ft  -  3s 13
mph
1008.3mb 39f 47f
5:50pm 0.7ft  -  3s 9
mph
1009.1mb 39f 49f
4:50pm 0.7ft  -  3s 11
mph
1009.6mb 39f 48f
3:50pm 0.7ft  -  3s 11
mph
1009.8mb 39f 49f
2:50pm 0.7ft  -  3s 9
mph
1010.7mb 39f 46f
1:50pm 0.7ft  -  3s 9 11 mph 1011mb 39f 46f
12:50pm 0.3ft  -  2s 13
mph
1011.3mb 39f 48f
11:50am 0.3ft  -  3s 11 13 mph 1011.4mb 39f 47f
10:50am  -   -   -  11 13 mph 1011.5mb 39f 47f
9:50am 0.3ft  -  3s 9
mph
1012mb 39f 44f
8:50am 0.3ft  -  3s 7
mph
1013mb 39f 45f
7:50am 0.3ft  -  2s 7 9 mph 1013mb 38f 45f
6:50am 0.3ft  -  3s 7
mph
1013mb 38f 45f
5:50am 0.3ft  -  3s 2 4 mph 1013.5mb 38f 46f
4:50am 0.3ft  -  2s 2 4 mph 1013.2mb 38f 46f